createdAt,value
2019-01-16T00:02:02.158Z,20.41
2019-01-16T00:04:47.065Z,20.41
2019-01-16T00:07:30.687Z,20.42
2019-01-16T00:10:05.065Z,20.40
2019-01-16T00:12:39.386Z,20.41
2019-01-16T00:15:10.621Z,20.41
2019-01-16T00:17:51.332Z,20.41
2019-01-16T00:20:31.645Z,20.41
2019-01-16T00:23:15.194Z,20.42
2019-01-16T00:25:49.980Z,20.42
2019-01-16T00:28:21.257Z,20.42
2019-01-16T00:31:04.849Z,20.42
2019-01-16T00:33:39.594Z,20.42
2019-01-16T00:36:24.449Z,20.42
2019-01-16T00:38:52.935Z,20.42
2019-01-16T00:41:33.808Z,20.41
2019-01-16T00:44:05.352Z,20.42
2019-01-16T00:46:33.993Z,20.43
2019-01-16T00:49:14.914Z,20.42
2019-01-16T00:51:58.628Z,20.43
2019-01-16T00:54:33.109Z,20.42
2019-01-16T00:57:04.422Z,20.42
2019-01-16T00:59:41.978Z,20.42
2019-01-16T01:02:13.397Z,20.43
2019-01-16T01:04:58.206Z,20.43
2019-01-16T01:07:29.775Z,20.43
2019-01-16T01:10:00.995Z,20.43
2019-01-16T01:12:29.555Z,20.42
2019-01-16T01:14:58.114Z,20.43
2019-01-16T01:17:35.850Z,20.42
2019-01-16T01:20:16.704Z,20.42
2019-01-16T01:22:45.257Z,20.43
2019-01-16T01:25:22.582Z,20.43
2019-01-16T01:27:51.180Z,20.43
2019-01-16T01:30:25.699Z,20.43
2019-01-16T01:33:03.465Z,20.43
2019-01-16T01:35:34.894Z,20.43
2019-01-16T01:38:21.714Z,20.44
2019-01-16T01:41:02.131Z,20.42
2019-01-16T01:43:46.828Z,20.44
2019-01-16T01:46:30.620Z,20.43
2019-01-16T01:48:59.191Z,20.45
2019-01-16T01:51:33.678Z,20.45
2019-01-16T01:54:20.463Z,20.45
2019-01-16T01:56:55.235Z,20.45
2019-01-16T01:59:24.023Z,20.43
2019-01-16T02:01:52.626Z,20.43
2019-01-16T02:04:39.577Z,20.43
2019-01-16T02:07:26.279Z,20.44
2019-01-16T02:09:54.822Z,20.44
2019-01-16T02:12:29.373Z,20.44
2019-01-16T02:15:15.328Z,20.44
2019-01-16T02:18:00.193Z,20.43
2019-01-16T02:20:34.741Z,20.44
2019-01-16T02:23:12.162Z,20.45
2019-01-16T02:25:56.946Z,20.43
2019-01-16T02:28:31.513Z,20.44
2019-01-16T02:31:09.123Z,20.44
2019-01-16T02:33:40.812Z,20.44
2019-01-16T02:36:09.354Z,20.43
2019-01-16T02:38:50.039Z,20.42
2019-01-16T02:41:30.873Z,20.44
2019-01-16T02:43:59.414Z,20.43
2019-01-16T02:46:44.366Z,20.42
2019-01-16T02:49:16.083Z,20.43
2019-01-16T02:51:47.603Z,20.42
2019-01-16T02:54:32.607Z,20.42
2019-01-16T02:57:10.412Z,20.44
2019-01-16T02:59:38.998Z,20.43
2019-01-16T03:02:13.233Z,20.43
2019-01-16T03:04:42.398Z,20.42
2019-01-16T03:07:23.184Z,20.42
2019-01-16T03:09:51.745Z,20.43
2019-01-16T03:12:20.360Z,20.43
2019-01-16T03:14:51.638Z,20.43
2019-01-16T03:17:29.405Z,20.43
2019-01-16T03:19:58.254Z,20.43
2019-01-16T03:22:29.754Z,20.44
2019-01-16T03:24:58.325Z,20.42
2019-01-16T03:27:26.912Z,20.43
2019-01-16T03:29:55.519Z,20.43
2019-01-16T03:32:30.328Z,20.42
2019-01-16T03:35:01.600Z,20.42
2019-01-16T03:37:42.405Z,20.42
2019-01-16T03:40:27.251Z,20.43
2019-01-16T03:42:58.476Z,20.43
2019-01-16T03:45:27.071Z,20.43
2019-01-16T03:48:04.412Z,20.42
2019-01-16T03:50:38.954Z,20.43
2019-01-16T03:53:19.544Z,20.42
2019-01-16T03:56:00.170Z,20.41
2019-01-16T03:58:28.745Z,20.42
2019-01-16T04:01:03.018Z,20.42
2019-01-16T04:03:47.954Z,20.42
2019-01-16T04:06:31.476Z,20.42
2019-01-16T04:09:16.142Z,20.41
2019-01-16T04:11:47.638Z,20.43
2019-01-16T04:14:16.196Z,20.42
2019-01-16T04:16:53.952Z,20.42
2019-01-16T04:19:25.047Z,20.43
2019-01-16T04:22:09.787Z,20.44
2019-01-16T04:24:41.244Z,20.42
2019-01-16T04:27:13.960Z,20.44
2019-01-16T04:29:52.019Z,20.43
2019-01-16T04:32:20.633Z,20.43
2019-01-16T04:35:05.472Z,20.44
2019-01-16T04:37:46.017Z,20.42
2019-01-16T04:40:30.675Z,20.42
2019-01-16T04:43:02.299Z,20.42
2019-01-16T04:45:39.803Z,20.42
2019-01-16T04:48:24.802Z,20.42
2019-01-16T04:50:56.158Z,20.42
2019-01-16T04:53:41.495Z,20.41
2019-01-16T04:56:26.194Z,20.42
2019-01-16T04:58:55.056Z,20.42
2019-01-16T05:01:32.500Z,20.42
2019-01-16T05:04:17.417Z,20.42
2019-01-16T05:06:45.956Z,20.42
2019-01-16T05:09:20.619Z,20.43
2019-01-16T05:11:54.869Z,20.42
2019-01-16T05:14:23.398Z,20.43
2019-01-16T05:16:55.122Z,20.41
2019-01-16T05:19:26.597Z,20.42
2019-01-16T05:21:57.918Z,20.43
2019-01-16T05:24:27.022Z,20.44
2019-01-16T05:27:07.695Z,20.43
2019-01-16T05:29:51.347Z,20.43
2019-01-16T05:32:25.768Z,20.42
2019-01-16T05:35:00.128Z,20.42
2019-01-16T05:37:31.426Z,20.44
2019-01-16T05:39:59.998Z,20.43
2019-01-16T05:42:31.231Z,20.43
2019-01-16T05:45:17.989Z,20.42
2019-01-16T05:47:52.662Z,20.43
2019-01-16T05:50:27.042Z,20.42
2019-01-16T05:53:10.971Z,20.43
2019-01-16T05:55:55.873Z,20.43
2019-01-16T05:58:25.886Z,20.42
2019-01-16T06:00:54.389Z,20.43
2019-01-16T06:03:25.900Z,20.44
2019-01-16T06:06:00.241Z,20.44
2019-01-16T06:08:43.908Z,20.44
2019-01-16T06:11:12.482Z,20.43
2019-01-16T06:13:58.566Z,20.43
2019-01-16T06:16:29.820Z,20.43
2019-01-16T06:19:16.641Z,20.43
2019-01-16T06:22:03.511Z,20.41
2019-01-16T06:24:32.130Z,20.43
2019-01-16T06:27:00.641Z,20.42
2019-01-16T06:29:35.110Z,20.42
2019-01-16T06:32:03.675Z,20.44
2019-01-16T06:34:32.279Z,20.42
2019-01-16T06:37:00.810Z,20.43
2019-01-16T06:39:41.510Z,20.43
2019-01-16T06:42:12.745Z,20.43
2019-01-16T06:44:41.310Z,20.45
2019-01-16T06:47:22.182Z,20.43
2019-01-16T06:49:50.762Z,20.43
2019-01-16T06:52:19.310Z,20.43
2019-01-16T06:54:50.920Z,20.42
2019-01-16T06:57:34.538Z,20.42
2019-01-16T07:00:21.169Z,20.42
2019-01-16T07:03:05.862Z,20.43
2019-01-16T07:05:36.944Z,20.43
2019-01-16T07:08:11.406Z,20.42
2019-01-16T07:10:52.042Z,20.42
2019-01-16T07:13:32.470Z,20.43
2019-01-16T07:16:01.073Z,20.42
2019-01-16T07:18:38.573Z,20.43
2019-01-16T07:21:16.018Z,20.42
2019-01-16T07:23:50.309Z,20.42
2019-01-16T07:26:18.886Z,20.43
2019-01-16T07:28:50.454Z,20.42
2019-01-16T07:31:24.744Z,20.42
2019-01-16T07:33:58.988Z,20.44
2019-01-16T07:36:39.418Z,20.42
2019-01-16T07:39:10.753Z,20.43
2019-01-16T07:41:39.297Z,20.42
2019-01-16T07:44:25.954Z,20.44
2019-01-16T07:47:00.292Z,20.44
2019-01-16T07:49:47.105Z,20.44
2019-01-16T07:52:33.780Z,20.44
2019-01-16T07:55:02.374Z,20.44
2019-01-16T07:57:39.942Z,20.46
2019-01-16T08:00:17.562Z,20.46
2019-01-16T08:02:55.131Z,20.45
2019-01-16T08:05:38.809Z,20.51
2019-01-16T08:08:16.509Z,20.54
2019-01-16T08:10:57.042Z,20.56
2019-01-16T08:13:34.983Z,20.56
2019-01-16T08:16:06.325Z,20.58
2019-01-16T08:18:37.772Z,19.99
2019-01-16T08:21:09.258Z,19.26
2019-01-16T08:23:56.016Z,18.83
2019-01-16T08:26:37.017Z,18.52
2019-01-16T08:29:11.323Z,19.13
2019-01-16T08:31:42.813Z,19.52
2019-01-16T08:34:17.201Z,19.72
2019-01-16T08:37:01.122Z,19.83
2019-01-16T08:39:29.670Z,19.90
2019-01-16T08:42:13.198Z,19.95
2019-01-16T08:44:59.890Z,19.99
2019-01-16T08:47:45.003Z,20.02
2019-01-16T08:50:32.734Z,20.04
2019-01-16T08:53:02.882Z,20.05
2019-01-16T08:55:31.428Z,20.05
2019-01-16T08:57:59.956Z,20.04
2019-01-16T09:00:28.537Z,20.05
2019-01-16T09:02:57.088Z,20.06
2019-01-16T09:05:44.132Z,20.05
2019-01-16T09:08:27.725Z,20.05
2019-01-16T09:10:56.427Z,20.04
2019-01-16T09:13:33.732Z,20.05
2019-01-16T09:16:08.293Z,20.03
2019-01-16T09:18:53.364Z,20.02
2019-01-16T09:21:38.500Z,20.03
2019-01-16T09:24:10.032Z,20.02
2019-01-16T09:26:55.232Z,20.07
2019-01-16T09:29:40.378Z,20.12
2019-01-16T09:32:24.265Z,20.13
2019-01-16T09:34:55.232Z,20.16
2019-01-16T09:37:26.481Z,20.18
2019-01-16T09:40:11.482Z,20.21
2019-01-16T09:42:49.032Z,20.20
2019-01-16T09:45:33.868Z,20.21
2019-01-16T09:48:05.410Z,20.18
2019-01-16T09:50:47.497Z,20.20
2019-01-16T09:53:22.666Z,20.24
2019-01-16T09:55:51.265Z,20.28
2019-01-16T09:58:28.915Z,20.32
2019-01-16T10:01:03.461Z,20.35
2019-01-16T10:03:38.060Z,20.39
2019-01-16T10:06:12.576Z,20.44
2019-01-16T10:08:53.248Z,20.49
2019-01-16T10:11:21.872Z,20.52
2019-01-16T10:13:56.437Z,20.56
2019-01-16T10:16:34.041Z,20.56
2019-01-16T10:19:17.745Z,20.54
2019-01-16T10:22:02.932Z,20.55
2019-01-16T10:24:43.653Z,20.57
2019-01-16T10:27:17.997Z,20.58
2019-01-16T10:29:46.544Z,20.61
2019-01-16T10:32:21.128Z,20.61
2019-01-16T10:35:06.295Z,20.63
2019-01-16T10:37:37.533Z,20.66
2019-01-16T10:40:12.119Z,20.66
2019-01-16T10:42:46.712Z,20.68
2019-01-16T10:45:31.718Z,20.69
2019-01-16T10:48:06.268Z,20.70
2019-01-16T10:50:37.518Z,20.70
2019-01-16T10:53:08.832Z,20.72
2019-01-16T10:55:40.141Z,20.73
2019-01-16T10:58:26.859Z,20.74
2019-01-16T11:00:58.224Z,20.76
2019-01-16T11:03:43.636Z,20.78
2019-01-16T11:06:24.258Z,20.78
2019-01-16T11:08:58.885Z,20.81
2019-01-16T11:11:27.408Z,20.81
2019-01-16T11:14:12.516Z,20.82
2019-01-16T11:16:56.822Z,20.84
2019-01-16T11:19:25.682Z,20.84
2019-01-16T11:21:57.127Z,20.85
2019-01-16T11:24:38.078Z,20.86
2019-01-16T11:27:21.786Z,20.85
2019-01-16T11:30:06.616Z,20.86
2019-01-16T11:32:53.692Z,20.87
2019-01-16T11:35:31.195Z,20.86
2019-01-16T11:38:16.320Z,20.89
2019-01-16T11:40:44.881Z,20.89
2019-01-16T11:43:31.873Z,20.89
2019-01-16T11:46:00.425Z,20.91
2019-01-16T11:48:31.713Z,20.91
2019-01-16T11:51:06.265Z,20.92
2019-01-16T11:53:40.812Z,20.94
2019-01-16T11:56:09.660Z,20.96
2019-01-16T11:58:44.657Z,20.94
2019-01-16T12:01:16.008Z,20.95
2019-01-16T12:04:00.973Z,20.95
2019-01-16T12:06:48.024Z,20.97
2019-01-16T12:09:33.095Z,20.96
2019-01-16T12:12:07.571Z,20.97
2019-01-16T12:14:52.454Z,20.97
2019-01-16T12:17:37.329Z,20.96
2019-01-16T12:20:05.905Z,20.95
2019-01-16T12:22:40.768Z,20.95
2019-01-16T12:25:12.385Z,20.97
2019-01-16T12:27:46.770Z,20.98
2019-01-16T12:30:21.088Z,20.98
2019-01-16T12:32:49.641Z,20.97
2019-01-16T12:35:18.216Z,20.97
2019-01-16T12:37:58.657Z,20.97
2019-01-16T12:40:36.029Z,20.99
2019-01-16T12:43:19.853Z,20.99
2019-01-16T12:45:54.501Z,20.99
2019-01-16T12:48:23.126Z,21.00
2019-01-16T12:50:51.673Z,21.00
2019-01-16T12:53:24.500Z,21.00
2019-01-16T12:56:05.177Z,21.01
2019-01-16T12:58:33.724Z,21.01
2019-01-16T13:01:02.272Z,21.02
2019-01-16T13:03:30.911Z,21.02
2019-01-16T13:06:08.486Z,21.01
2019-01-16T13:08:37.088Z,21.00
2019-01-16T13:11:22.090Z,20.99
2019-01-16T13:13:53.773Z,20.99
2019-01-16T13:16:38.823Z,21.00
2019-01-16T13:19:13.484Z,21.01
2019-01-16T13:21:42.094Z,21.00
2019-01-16T13:24:25.964Z,21.00
2019-01-16T13:27:11.119Z,21.01
2019-01-16T13:29:39.664Z,20.99
2019-01-16T13:32:14.268Z,20.95
2019-01-16T13:34:59.013Z,20.93
2019-01-16T13:37:30.281Z,20.92
2019-01-16T13:40:15.270Z,20.94
2019-01-16T13:42:43.850Z,20.96
2019-01-16T13:45:28.972Z,20.97
2019-01-16T13:48:00.612Z,20.98
2019-01-16T13:50:35.119Z,20.98
2019-01-16T13:53:06.661Z,21.00
2019-01-16T13:55:51.617Z,21.02
2019-01-16T13:58:21.667Z,21.03
2019-01-16T14:00:50.254Z,21.01
2019-01-16T14:03:33.865Z,21.03
2019-01-16T14:06:14.257Z,21.03
2019-01-16T14:08:55.028Z,21.04
2019-01-16T14:11:23.611Z,21.04
2019-01-16T14:13:52.224Z,21.05
2019-01-16T14:16:37.177Z,21.05
2019-01-16T14:19:05.764Z,21.07
2019-01-16T14:21:34.319Z,21.07
2019-01-16T14:24:02.891Z,21.07
2019-01-16T14:26:48.092Z,21.07
2019-01-16T14:29:28.602Z,21.07
2019-01-16T14:32:03.183Z,21.07
2019-01-16T14:34:31.751Z,21.07
2019-01-16T14:37:17.025Z,21.08
2019-01-16T14:39:54.624Z,21.08
2019-01-16T14:42:35.201Z,21.08
2019-01-16T14:45:03.777Z,21.09
2019-01-16T14:47:41.177Z,21.09
2019-01-16T14:50:21.687Z,21.10
2019-01-16T14:53:06.488Z,21.08
2019-01-16T14:55:40.751Z,21.09
2019-01-16T14:58:25.736Z,21.08
2019-01-16T15:00:57.254Z,21.09
2019-01-16T15:03:25.815Z,21.10
2019-01-16T15:05:57.450Z,21.09
2019-01-16T15:08:34.909Z,21.09
2019-01-16T15:11:19.678Z,21.10
2019-01-16T15:13:48.226Z,21.10
2019-01-16T15:16:25.991Z,21.11
2019-01-16T15:19:04.845Z,21.11
2019-01-16T15:21:48.016Z,21.10
2019-01-16T15:24:34.597Z,21.09
2019-01-16T15:27:19.701Z,21.11
2019-01-16T15:29:57.543Z,21.11
2019-01-16T15:32:42.471Z,21.10
2019-01-16T15:35:27.391Z,21.11
2019-01-16T15:38:12.655Z,21.10
2019-01-16T15:40:47.160Z,21.08
2019-01-16T15:43:24.764Z,21.09
2019-01-16T15:45:55.959Z,21.08
2019-01-16T15:48:27.492Z,21.09
2019-01-16T15:51:11.394Z,21.10
2019-01-16T15:53:45.689Z,21.09
2019-01-16T15:56:20.224Z,21.08
2019-01-16T15:58:48.767Z,21.09
2019-01-16T16:01:35.341Z,21.07
2019-01-16T16:04:03.879Z,21.08
2019-01-16T16:06:35.302Z,21.10
2019-01-16T16:09:20.023Z,21.09
2019-01-16T16:11:48.591Z,21.09
2019-01-16T16:14:26.149Z,21.08
2019-01-16T16:17:11.043Z,21.09
2019-01-16T16:19:45.530Z,21.06
2019-01-16T16:22:30.339Z,20.99
2019-01-16T16:25:01.814Z,21.01
2019-01-16T16:27:42.363Z,20.27
2019-01-16T16:30:27.402Z,19.61
2019-01-16T16:33:11.081Z,19.16
2019-01-16T16:35:39.665Z,18.85
2019-01-16T16:38:10.912Z,18.64
2019-01-16T16:40:48.459Z,19.37
2019-01-16T16:43:17.012Z,19.77
2019-01-16T16:45:54.295Z,19.92
2019-01-16T16:48:22.844Z,20.01
2019-01-16T16:50:57.293Z,20.09
2019-01-16T16:53:42.501Z,20.15
2019-01-16T16:56:11.051Z,20.18
2019-01-16T16:58:39.605Z,20.15
2019-01-16T17:01:26.561Z,20.12
2019-01-16T17:03:55.127Z,20.10
2019-01-16T17:06:29.917Z,20.08
2019-01-16T17:09:07.686Z,20.06
2019-01-16T17:11:51.427Z,20.04
2019-01-16T17:14:22.811Z,20.07
2019-01-16T17:16:57.324Z,20.12
2019-01-16T17:19:31.812Z,20.16
2019-01-16T17:22:06.396Z,20.15
2019-01-16T17:24:37.725Z,20.17
2019-01-16T17:27:09.203Z,20.21
2019-01-16T17:29:37.762Z,20.19
2019-01-16T17:32:24.897Z,19.96
2019-01-16T17:34:53.439Z,20.16
2019-01-16T17:37:21.987Z,20.16
2019-01-16T17:39:50.648Z,20.16
2019-01-16T17:42:19.202Z,20.15
2019-01-16T17:44:47.859Z,20.16
2019-01-16T17:47:16.426Z,20.16
2019-01-16T17:49:47.947Z,20.17
2019-01-16T17:52:16.563Z,20.18
2019-01-16T17:55:01.525Z,20.19
2019-01-16T17:57:46.958Z,20.20
2019-01-16T18:00:24.553Z,20.19
2019-01-16T18:03:09.679Z,20.18
2019-01-16T18:05:54.901Z,20.19
2019-01-16T18:08:35.576Z,20.18
2019-01-16T18:11:07.238Z,20.19
2019-01-16T18:13:47.929Z,20.17
2019-01-16T18:16:16.476Z,20.17
2019-01-16T18:18:45.506Z,20.17
2019-01-16T18:21:17.251Z,20.19
2019-01-16T18:23:58.218Z,20.17
2019-01-16T18:26:32.544Z,20.19
2019-01-16T18:29:10.362Z,20.19
2019-01-16T18:31:44.948Z,20.18
2019-01-16T18:34:16.436Z,20.17
2019-01-16T18:36:44.985Z,20.17
2019-01-16T18:39:19.513Z,20.16
2019-01-16T18:42:04.831Z,20.15
2019-01-16T18:44:33.382Z,20.15
2019-01-16T18:47:04.935Z,20.15
2019-01-16T18:49:51.607Z,20.14
2019-01-16T18:52:25.738Z,20.14
2019-01-16T18:55:09.178Z,20.15
2019-01-16T18:57:43.683Z,20.16
2019-01-16T19:00:18.152Z,20.16
2019-01-16T19:02:46.714Z,20.17
2019-01-16T19:05:32.736Z,20.17
2019-01-16T19:08:07.534Z,20.17
2019-01-16T19:10:36.080Z,20.18
2019-01-16T19:13:04.657Z,20.17
2019-01-16T19:15:39.372Z,20.18
2019-01-16T19:18:07.935Z,20.19
2019-01-16T19:20:39.508Z,20.24
2019-01-16T19:23:08.054Z,20.16
2019-01-16T19:25:39.381Z,20.29
2019-01-16T19:28:07.907Z,20.32
2019-01-16T19:30:53.030Z,20.32
2019-01-16T19:33:21.606Z,20.31
2019-01-16T19:35:50.148Z,20.30
2019-01-16T19:38:35.091Z,20.36
2019-01-16T19:41:03.725Z,20.38
2019-01-16T19:43:44.191Z,20.40
2019-01-16T19:46:16.162Z,20.42
2019-01-16T19:49:00.049Z,20.43
2019-01-16T19:51:44.891Z,20.44
2019-01-16T19:54:13.435Z,20.46
2019-01-16T19:56:44.952Z,20.47
2019-01-16T19:59:16.401Z,20.73
2019-01-16T20:01:53.784Z,20.90
2019-01-16T20:04:38.696Z,20.91
2019-01-16T20:07:16.160Z,20.73
2019-01-16T20:09:50.923Z,20.63
2019-01-16T20:12:19.517Z,20.64
2019-01-16T20:14:51.061Z,20.60
2019-01-16T20:17:22.562Z,20.60
2019-01-16T20:19:56.807Z,20.60
2019-01-16T20:22:42.033Z,20.60
2019-01-16T20:25:22.485Z,20.59
2019-01-16T20:28:03.023Z,20.60
2019-01-16T20:30:31.611Z,20.59
2019-01-16T20:33:08.944Z,20.61
2019-01-16T20:35:43.095Z,20.61
2019-01-16T20:38:11.673Z,20.63
2019-01-16T20:40:55.441Z,20.60
2019-01-16T20:43:23.997Z,20.61
2019-01-16T20:45:58.515Z,20.60
2019-01-16T20:48:27.105Z,20.59
2019-01-16T20:50:58.744Z,20.60
2019-01-16T20:53:30.251Z,20.60
2019-01-16T20:56:13.897Z,20.60
2019-01-16T20:58:48.646Z,20.60
2019-01-16T21:01:33.487Z,20.58
2019-01-16T21:04:18.637Z,20.58
2019-01-16T21:06:47.201Z,20.57
2019-01-16T21:09:31.122Z,20.58
2019-01-16T21:12:16.294Z,20.56
2019-01-16T21:14:44.838Z,20.57
2019-01-16T21:17:16.561Z,20.58
2019-01-16T21:19:48.092Z,20.56
2019-01-16T21:22:32.133Z,20.56
2019-01-16T21:25:16.355Z,20.51
2019-01-16T21:28:01.535Z,20.54
2019-01-16T21:30:30.256Z,20.54
2019-01-16T21:33:10.621Z,20.54
2019-01-16T21:35:37.726Z,20.54
2019-01-16T21:38:12.331Z,20.53
2019-01-16T21:40:40.875Z,20.51
2019-01-16T21:43:18.699Z,20.51
2019-01-16T21:46:03.889Z,20.51
2019-01-16T21:48:48.843Z,20.49
2019-01-16T21:51:17.381Z,20.49
2019-01-16T21:53:54.773Z,20.50
2019-01-16T21:56:26.012Z,20.49
2019-01-16T21:59:10.982Z,20.49
2019-01-16T22:01:39.566Z,20.47
2019-01-16T22:04:24.625Z,20.47
2019-01-16T22:07:09.463Z,20.46
2019-01-16T22:09:57.494Z,20.47
2019-01-16T22:12:27.973Z,20.46
2019-01-16T22:15:05.768Z,20.47
2019-01-16T22:17:47.011Z,20.48
2019-01-16T22:20:15.834Z,20.47
2019-01-16T22:22:56.424Z,20.48
2019-01-16T22:25:30.917Z,20.44
2019-01-16T22:28:05.768Z,20.45
2019-01-16T22:30:40.352Z,20.45
2019-01-16T22:33:09.089Z,20.45
2019-01-16T22:35:49.863Z,20.44
2019-01-16T22:38:27.960Z,20.45
2019-01-16T22:40:59.710Z,20.46
2019-01-16T22:43:28.329Z,20.45
2019-01-16T22:46:02.808Z,20.46
2019-01-16T22:48:34.024Z,20.48
2019-01-16T22:51:02.580Z,20.30
2019-01-16T22:53:46.056Z,20.50
2019-01-16T22:56:30.648Z,20.53
2019-01-16T22:59:14.189Z,20.52
2019-01-16T23:02:00.880Z,20.53
2019-01-16T23:04:35.444Z,20.51
2019-01-16T23:07:06.669Z,20.52
2019-01-16T23:09:35.240Z,20.52
2019-01-16T23:12:20.161Z,20.53
2019-01-16T23:14:48.741Z,20.52
2019-01-16T23:17:20.128Z,20.52
2019-01-16T23:19:57.840Z,20.52
2019-01-16T23:22:26.393Z,20.52
2019-01-16T23:25:10.000Z,20.51
2019-01-16T23:27:44.662Z,20.51
2019-01-16T23:30:22.217Z,20.51
2019-01-16T23:33:06.942Z,20.49
2019-01-16T23:35:38.466Z,20.51
2019-01-16T23:38:07.016Z,20.52
2019-01-16T23:40:51.849Z,20.52
2019-01-16T23:43:35.660Z,20.51
2019-01-16T23:46:09.949Z,20.50
2019-01-16T23:48:50.707Z,20.51
2019-01-16T23:51:35.380Z,20.52
2019-01-16T23:54:16.214Z,20.50
2019-01-16T23:56:44.700Z,20.49
2019-01-16T23:59:13.250Z,20.50
